sensor_id;sensor_type;location;lat;lon;timestamp;temperature;humidity
19868;DHT22;10096;51.112;6.776;2022-12-13T00:01:12;-1.40;99.90
19868;DHT22;10096;51.112;6.776;2022-12-13T00:03:39;-1.50;99.90
19868;DHT22;10096;51.112;6.776;2022-12-13T00:06:08;-1.30;99.90
19868;DHT22;10096;51.112;6.776;2022-12-13T00:08:36;-1.60;99.90
19868;DHT22;10096;51.112;6.776;2022-12-13T00:11:07;-1.60;99.90
19868;DHT22;10096;51.112;6.776;2022-12-13T00:13:34;-1.60;99.90
19868;DHT22;10096;51.112;6.776;2022-12-13T00:16:03;-1.50;99.90
19868;DHT22;10096;51.112;6.776;2022-12-13T00:18:30;-1.40;99.90
19868;DHT22;10096;51.112;6.776;2022-12-13T00:20:57;-1.50;99.90
19868;DHT22;10096;51.112;6.776;2022-12-13T00:23:24;-1.40;99.90
19868;DHT22;10096;51.112;6.776;2022-12-13T00:25:51;-1.40;99.90
19868;DHT22;10096;51.112;6.776;2022-12-13T00:28:20;-1.40;99.90
19868;DHT22;10096;51.112;6.776;2022-12-13T00:30:47;-1.60;99.90
19868;DHT22;10096;51.112;6.776;2022-12-13T00:33:14;-1.60;99.90
19868;DHT22;10096;51.112;6.776;2022-12-13T00:35:41;-1.60;99.90
19868;DHT22;10096;51.112;6.776;2022-12-13T00:38:10;-1.60;99.90
19868;DHT22;10096;51.112;6.776;2022-12-13T00:40:37;-1.60;99.90
19868;DHT22;10096;51.112;6.776;2022-12-13T00:43:04;-1.60;99.90
19868;DHT22;10096;51.112;6.776;2022-12-13T00:45:33;-1.40;99.90
19868;DHT22;10096;51.112;6.776;2022-12-13T00:48:00;-1.60;99.90
19868;DHT22;10096;51.112;6.776;2022-12-13T00:50:27;-1.60;99.90
19868;DHT22;10096;51.112;6.776;2022-12-13T00:52:54;-1.50;99.90
19868;DHT22;10096;51.112;6.776;2022-12-13T00:55:21;-1.70;99.90
19868;DHT22;10096;51.112;6.776;2022-12-13T00:57:48;-1.70;99.90
19868;DHT22;10096;51.112;6.776;2022-12-13T01:00:15;-1.50;99.90
19868;DHT22;10096;51.112;6.776;2022-12-13T01:02:44;-1.60;99.90
19868;DHT22;10096;51.112;6.776;2022-12-13T01:05:12;-1.60;99.90
19868;DHT22;10096;51.112;6.776;2022-12-13T01:07:40;-1.40;99.90
19868;DHT22;10096;51.112;6.776;2022-12-13T01:10:10;-1.50;99.90
19868;DHT22;10096;51.112;6.776;2022-12-13T01:12:37;-1.70;99.90
19868;DHT22;10096;51.112;6.776;2022-12-13T01:15:06;-1.70;99.90
19868;DHT22;10096;51.112;6.776;2022-12-13T01:17:34;-1.70;99.90
19868;DHT22;10096;51.112;6.776;2022-12-13T01:20:03;-1.80;99.90
19868;DHT22;10096;51.112;6.776;2022-12-13T01:22:31;-1.80;99.90
19868;DHT22;10096;51.112;6.776;2022-12-13T01:24:58;-1.70;99.90
19868;DHT22;10096;51.112;6.776;2022-12-13T01:27:26;-1.60;99.90
19868;DHT22;10096;51.112;6.776;2022-12-13T01:29:53;-1.90;99.90
19868;DHT22;10096;51.112;6.776;2022-12-13T01:32:20;-1.60;1.00
19868;DHT22;10096;51.112;6.776;2022-12-13T01:34:47;-1.70;1.00
19868;DHT22;10096;51.112;6.776;2022-12-13T01:37:15;-1.70;1.00
19868;DHT22;10096;51.112;6.776;2022-12-13T01:39:44;-1.70;1.00
19868;DHT22;10096;51.112;6.776;2022-12-13T01:42:13;-1.60;1.00
19868;DHT22;10096;51.112;6.776;2022-12-13T01:45:03;-1.60;1.00
19868;DHT22;10096;51.112;6.776;2022-12-13T01:47:34;-1.60;1.00
19868;DHT22;10096;51.112;6.776;2022-12-13T01:50:07;-1.70;1.00
19868;DHT22;10096;51.112;6.776;2022-12-13T01:52:39;-1.60;1.00
19868;DHT22;10096;51.112;6.776;2022-12-13T01:55:08;-1.60;1.00
19868;DHT22;10096;51.112;6.776;2022-12-13T01:57:36;-1.60;1.00
19868;DHT22;10096;51.112;6.776;2022-12-13T02:00:06;-1.60;1.00
19868;DHT22;10096;51.112;6.776;2022-12-13T02:02:33;-1.50;1.00
19868;DHT22;10096;51.112;6.776;2022-12-13T02:05:04;-1.50;1.00
19868;DHT22;10096;51.112;6.776;2022-12-13T02:07:34;-1.50;99.90
19868;DHT22;10096;51.112;6.776;2022-12-13T02:10:06;-1.60;99.90
19868;DHT22;10096;51.112;6.776;2022-12-13T02:12:34;-1.60;99.90
19868;DHT22;10096;51.112;6.776;2022-12-13T02:15:04;-1.70;99.90
19868;DHT22;10096;51.112;6.776;2022-12-13T02:17:44;-1.70;99.90
19868;DHT22;10096;51.112;6.776;2022-12-13T02:20:36;-1.60;99.90
19868;DHT22;10096;51.112;6.776;2022-12-13T02:26:28;-1.70;99.90
19868;DHT22;10096;51.112;6.776;2022-12-13T02:29:16;-1.80;99.90
19868;DHT22;10096;51.112;6.776;2022-12-13T02:31:56;-1.70;1.00
19868;DHT22;10096;51.112;6.776;2022-12-13T02:34:27;-1.90;99.90
19868;DHT22;10096;51.112;6.776;2022-12-13T02:37:00;-1.80;99.90
19868;DHT22;10096;51.112;6.776;2022-12-13T02:39:31;-2.10;99.90
19868;DHT22;10096;51.112;6.776;2022-12-13T02:42:04;-1.90;99.90
19868;DHT22;10096;51.112;6.776;2022-12-13T02:44:34;-1.90;99.90
19868;DHT22;10096;51.112;6.776;2022-12-13T02:47:09;-2.00;99.90
19868;DHT22;10096;51.112;6.776;2022-12-13T02:49:39;-2.20;99.90
19868;DHT22;10096;51.112;6.776;2022-12-13T02:52:09;-2.20;99.90
19868;DHT22;10096;51.112;6.776;2022-12-13T02:54:37;-2.20;99.90
19868;DHT22;10096;51.112;6.776;2022-12-13T02:57:27;-2.10;99.90
19868;DHT22;10096;51.112;6.776;2022-12-13T02:59:55;-2.30;99.90
19868;DHT22;10096;51.112;6.776;2022-12-13T03:02:31;-2.30;99.90
19868;DHT22;10096;51.112;6.776;2022-12-13T03:05:14;-2.30;99.90
19868;DHT22;10096;51.112;6.776;2022-12-13T03:08:14;-2.30;99.90
19868;DHT22;10096;51.112;6.776;2022-12-13T03:10:52;-2.20;99.90
19868;DHT22;10096;51.112;6.776;2022-12-13T03:13:25;-2.20;99.90
19868;DHT22;10096;51.112;6.776;2022-12-13T03:16:06;-2.20;1.00
19868;DHT22;10096;51.112;6.776;2022-12-13T03:18:36;-2.40;1.00
19868;DHT22;10096;51.112;6.776;2022-12-13T03:21:06;-2.50;1.00
19868;DHT22;10096;51.112;6.776;2022-12-13T03:23:34;-2.30;1.00
19868;DHT22;10096;51.112;6.776;2022-12-13T03:26:05;-2.50;1.00
19868;DHT22;10096;51.112;6.776;2022-12-13T03:28:33;-2.40;1.00
19868;DHT22;10096;51.112;6.776;2022-12-13T03:31:00;-2.50;1.00
19868;DHT22;10096;51.112;6.776;2022-12-13T03:33:27;-2.40;1.00
19868;DHT22;10096;51.112;6.776;2022-12-13T03:35:56;-2.40;1.00
19868;DHT22;10096;51.112;6.776;2022-12-13T03:38:23;-2.40;1.00
19868;DHT22;10096;51.112;6.776;2022-12-13T03:40:53;-2.30;1.00
19868;DHT22;10096;51.112;6.776;2022-12-13T03:43:21;-2.30;1.00
19868;DHT22;10096;51.112;6.776;2022-12-13T03:45:49;-2.10;1.00
19868;DHT22;10096;51.112;6.776;2022-12-13T03:48:16;-2.30;1.00
19868;DHT22;10096;51.112;6.776;2022-12-13T03:50:44;-2.10;1.00
19868;DHT22;10096;51.112;6.776;2022-12-13T03:53:12;-2.10;1.00
19868;DHT22;10096;51.112;6.776;2022-12-13T03:55:39;-2.10;1.00
19868;DHT22;10096;51.112;6.776;2022-12-13T03:58:07;-2.10;1.00
19868;DHT22;10096;51.112;6.776;2022-12-13T04:00:34;-2.30;99.90
19868;DHT22;10096;51.112;6.776;2022-12-13T04:03:01;-2.30;99.90
19868;DHT22;10096;51.112;6.776;2022-12-13T04:05:28;-2.30;99.90
19868;DHT22;10096;51.112;6.776;2022-12-13T04:07:55;-2.30;99.90
19868;DHT22;10096;51.112;6.776;2022-12-13T04:10:24;-2.10;99.90
19868;DHT22;10096;51.112;6.776;2022-12-13T04:12:51;-2.30;99.90
19868;DHT22;10096;51.112;6.776;2022-12-13T04:15:35;-2.40;99.90
19868;DHT22;10096;51.112;6.776;2022-12-13T04:18:03;-2.40;99.90
19868;DHT22;10096;51.112;6.776;2022-12-13T04:20:30;-2.30;99.90
19868;DHT22;10096;51.112;6.776;2022-12-13T04:22:57;-2.20;99.90
19868;DHT22;10096;51.112;6.776;2022-12-13T04:25:25;-2.40;99.90
19868;DHT22;10096;51.112;6.776;2022-12-13T04:27:52;-2.40;99.90
19868;DHT22;10096;51.112;6.776;2022-12-13T04:30:19;-2.50;99.90
19868;DHT22;10096;51.112;6.776;2022-12-13T04:32:46;-2.50;99.90
19868;DHT22;10096;51.112;6.776;2022-12-13T04:35:13;-2.50;99.90
19868;DHT22;10096;51.112;6.776;2022-12-13T04:37:40;-2.50;99.90
19868;DHT22;10096;51.112;6.776;2022-12-13T04:40:08;-2.40;99.90
19868;DHT22;10096;51.112;6.776;2022-12-13T04:42:37;-2.60;99.90
19868;DHT22;10096;51.112;6.776;2022-12-13T04:45:05;-2.40;99.90
19868;DHT22;10096;51.112;6.776;2022-12-13T04:47:32;-2.50;99.90
19868;DHT22;10096;51.112;6.776;2022-12-13T04:49:59;-2.50;99.90
19868;DHT22;10096;51.112;6.776;2022-12-13T04:52:26;-2.30;99.90
19868;DHT22;10096;51.112;6.776;2022-12-13T04:54:54;-2.50;99.90
19868;DHT22;10096;51.112;6.776;2022-12-13T04:57:21;-2.30;99.90
19868;DHT22;10096;51.112;6.776;2022-12-13T04:59:49;-2.50;99.90
19868;DHT22;10096;51.112;6.776;2022-12-13T05:02:17;-2.50;99.90
19868;DHT22;10096;51.112;6.776;2022-12-13T05:04:44;-2.50;99.90
19868;DHT22;10096;51.112;6.776;2022-12-13T05:07:11;-2.50;99.90
19868;DHT22;10096;51.112;6.776;2022-12-13T05:09:38;-2.60;99.90
19868;DHT22;10096;51.112;6.776;2022-12-13T05:12:05;-2.60;99.90
19868;DHT22;10096;51.112;6.776;2022-12-13T05:14:32;-2.50;99.90
19868;DHT22;10096;51.112;6.776;2022-12-13T05:17:01;-2.60;99.90
19868;DHT22;10096;51.112;6.776;2022-12-13T05:19:28;-2.30;99.90
19868;DHT22;10096;51.112;6.776;2022-12-13T05:21:55;-2.40;99.90
19868;DHT22;10096;51.112;6.776;2022-12-13T05:24:22;-2.70;99.90
19868;DHT22;10096;51.112;6.776;2022-12-13T05:26:49;-2.70;99.90
19868;DHT22;10096;51.112;6.776;2022-12-13T05:29:17;-2.60;99.90
19868;DHT22;10096;51.112;6.776;2022-12-13T05:31:44;-2.60;99.90
19868;DHT22;10096;51.112;6.776;2022-12-13T05:34:13;-2.70;99.90
19868;DHT22;10096;51.112;6.776;2022-12-13T05:36:43;-2.60;99.90
19868;DHT22;10096;51.112;6.776;2022-12-13T05:39:10;-2.70;99.90
19868;DHT22;10096;51.112;6.776;2022-12-13T05:41:37;-2.70;99.90
19868;DHT22;10096;51.112;6.776;2022-12-13T05:44:05;-2.70;99.90
19868;DHT22;10096;51.112;6.776;2022-12-13T05:46:35;-2.70;99.90
19868;DHT22;10096;51.112;6.776;2022-12-13T05:49:02;-2.80;99.90
19868;DHT22;10096;51.112;6.776;2022-12-13T05:51:30;-2.80;99.90
19868;DHT22;10096;51.112;6.776;2022-12-13T05:53:57;-2.60;99.90
19868;DHT22;10096;51.112;6.776;2022-12-13T05:56:24;-2.90;99.90
19868;DHT22;10096;51.112;6.776;2022-12-13T05:58:51;-2.80;99.90
19868;DHT22;10096;51.112;6.776;2022-12-13T06:01:19;-2.80;99.90
19868;DHT22;10096;51.112;6.776;2022-12-13T06:03:46;-2.70;99.90
19868;DHT22;10096;51.112;6.776;2022-12-13T06:06:13;-2.90;99.90
19868;DHT22;10096;51.112;6.776;2022-12-13T06:08:43;-3.10;99.90
19868;DHT22;10096;51.112;6.776;2022-12-13T06:11:11;-2.80;99.90
19868;DHT22;10096;51.112;6.776;2022-12-13T06:13:41;-2.90;99.90
19868;DHT22;10096;51.112;6.776;2022-12-13T06:16:09;-2.80;99.90
19868;DHT22;10096;51.112;6.776;2022-12-13T06:18:36;-2.70;99.90
19868;DHT22;10096;51.112;6.776;2022-12-13T06:21:05;-2.90;99.90
19868;DHT22;10096;51.112;6.776;2022-12-13T06:23:33;-2.70;99.90
19868;DHT22;10096;51.112;6.776;2022-12-13T06:26:04;-2.90;99.90
19868;DHT22;10096;51.112;6.776;2022-12-13T06:28:31;-3.20;99.90
19868;DHT22;10096;51.112;6.776;2022-12-13T06:30:59;-3.00;99.90
19868;DHT22;10096;51.112;6.776;2022-12-13T06:33:28;-2.80;99.90
19868;DHT22;10096;51.112;6.776;2022-12-13T06:36:00;-3.00;99.90
19868;DHT22;10096;51.112;6.776;2022-12-13T06:38:27;-2.90;99.90
19868;DHT22;10096;51.112;6.776;2022-12-13T06:40:54;-2.80;99.90
19868;DHT22;10096;51.112;6.776;2022-12-13T06:43:23;-3.00;99.90
19868;DHT22;10096;51.112;6.776;2022-12-13T06:45:50;-2.80;99.90
19868;DHT22;10096;51.112;6.776;2022-12-13T06:48:18;-3.00;99.90
19868;DHT22;10096;51.112;6.776;2022-12-13T06:50:45;-2.90;99.90
19868;DHT22;10096;51.112;6.776;2022-12-13T06:53:12;-3.00;99.90
19868;DHT22;10096;51.112;6.776;2022-12-13T06:55:39;-3.00;99.90
19868;DHT22;10096;51.112;6.776;2022-12-13T06:58:06;-3.00;99.90
19868;DHT22;10096;51.112;6.776;2022-12-13T07:00:35;-3.10;99.90
19868;DHT22;10096;51.112;6.776;2022-12-13T07:03:02;-3.00;99.90
19868;DHT22;10096;51.112;6.776;2022-12-13T07:05:29;-2.90;99.90
19868;DHT22;10096;51.112;6.776;2022-12-13T07:07:56;-3.00;99.90
19868;DHT22;10096;51.112;6.776;2022-12-13T07:10:23;-2.90;99.90
19868;DHT22;10096;51.112;6.776;2022-12-13T07:12:51;-3.00;99.90
19868;DHT22;10096;51.112;6.776;2022-12-13T07:15:18;-3.10;99.90
19868;DHT22;10096;51.112;6.776;2022-12-13T07:17:50;-3.00;99.90
19868;DHT22;10096;51.112;6.776;2022-12-13T07:20:18;-3.00;99.90
19868;DHT22;10096;51.112;6.776;2022-12-13T07:22:46;-3.00;99.90
19868;DHT22;10096;51.112;6.776;2022-12-13T07:25:18;-2.90;99.90
19868;DHT22;10096;51.112;6.776;2022-12-13T07:27:47;-2.90;99.90
19868;DHT22;10096;51.112;6.776;2022-12-13T07:30:14;-2.80;99.90
19868;DHT22;10096;51.112;6.776;2022-12-13T07:32:41;-2.70;99.90
19868;DHT22;10096;51.112;6.776;2022-12-13T07:35:10;-2.90;99.90
19868;DHT22;10096;51.112;6.776;2022-12-13T07:37:37;-2.90;99.90
19868;DHT22;10096;51.112;6.776;2022-12-13T07:40:05;-2.90;99.90
19868;DHT22;10096;51.112;6.776;2022-12-13T07:42:32;-2.70;99.90
19868;DHT22;10096;51.112;6.776;2022-12-13T07:45:00;-2.70;99.90
19868;DHT22;10096;51.112;6.776;2022-12-13T07:47:28;-2.60;99.90
19868;DHT22;10096;51.112;6.776;2022-12-13T07:49:55;-2.70;99.90
19868;DHT22;10096;51.112;6.776;2022-12-13T07:52:24;-2.80;99.90
19868;DHT22;10096;51.112;6.776;2022-12-13T07:54:51;-2.80;99.90
19868;DHT22;10096;51.112;6.776;2022-12-13T07:57:18;-2.80;99.90
19868;DHT22;10096;51.112;6.776;2022-12-13T07:59:45;-2.80;99.90
19868;DHT22;10096;51.112;6.776;2022-12-13T08:02:12;-2.80;76.90
19868;DHT22;10096;51.112;6.776;2022-12-13T08:04:42;-2.80;52.80
19868;DHT22;10096;51.112;6.776;2022-12-13T08:07:10;-2.70;31.90
19868;DHT22;10096;51.112;6.776;2022-12-13T08:09:38;-2.80;17.30
19868;DHT22;10096;51.112;6.776;2022-12-13T08:12:06;-2.80;35.80
19868;DHT22;10096;51.112;6.776;2022-12-13T08:14:33;-2.70;59.70
19868;DHT22;10096;51.112;6.776;2022-12-13T08:17:00;-2.60;40.80
19868;DHT22;10096;51.112;6.776;2022-12-13T08:19:28;-2.60;14.50
19868;DHT22;10096;51.112;6.776;2022-12-13T08:21:56;-2.60;1.00
19868;DHT22;10096;51.112;6.776;2022-12-13T08:24:24;-2.60;1.00
19868;DHT22;10096;51.112;6.776;2022-12-13T08:26:53;-2.50;1.00
19868;DHT22;10096;51.112;6.776;2022-12-13T08:29:21;-2.60;1.80
19868;DHT22;10096;51.112;6.776;2022-12-13T08:31:49;-2.40;9.00
19868;DHT22;10096;51.112;6.776;2022-12-13T08:34:16;-2.60;1.00
19868;DHT22;10096;51.112;6.776;2022-12-13T08:36:43;-2.50;1.00
19868;DHT22;10096;51.112;6.776;2022-12-13T08:39:10;-2.40;1.00
19868;DHT22;10096;51.112;6.776;2022-12-13T08:41:37;-2.40;1.00
19868;DHT22;10096;51.112;6.776;2022-12-13T08:44:06;-2.50;1.00
19868;DHT22;10096;51.112;6.776;2022-12-13T08:46:33;-2.20;1.00
19868;DHT22;10096;51.112;6.776;2022-12-13T08:49:00;-2.10;1.00
19868;DHT22;10096;51.112;6.776;2022-12-13T08:51:28;-2.00;1.00
19868;DHT22;10096;51.112;6.776;2022-12-13T08:53:56;-2.00;1.00
19868;DHT22;10096;51.112;6.776;2022-12-13T08:56:23;-2.10;1.00
19868;DHT22;10096;51.112;6.776;2022-12-13T08:58:50;-2.10;1.00
19868;DHT22;10096;51.112;6.776;2022-12-13T09:01:19;-2.00;1.00
19868;DHT22;10096;51.112;6.776;2022-12-13T09:03:46;-2.10;1.00
19868;DHT22;10096;51.112;6.776;2022-12-13T09:06:15;-1.80;1.00
19868;DHT22;10096;51.112;6.776;2022-12-13T09:08:44;-1.90;1.00
19868;DHT22;10096;51.112;6.776;2022-12-13T09:11:12;-1.90;1.00
19868;DHT22;10096;51.112;6.776;2022-12-13T09:13:39;-1.60;1.00
19868;DHT22;10096;51.112;6.776;2022-12-13T09:16:08;-1.70;1.00
19868;DHT22;10096;51.112;6.776;2022-12-13T09:18:38;-1.60;1.00
19868;DHT22;10096;51.112;6.776;2022-12-13T09:21:07;-1.60;1.00
19868;DHT22;10096;51.112;6.776;2022-12-13T09:23:34;-1.60;1.00
19868;DHT22;10096;51.112;6.776;2022-12-13T09:26:01;-1.70;1.00
19868;DHT22;10096;51.112;6.776;2022-12-13T09:28:29;-1.60;1.00
19868;DHT22;10096;51.112;6.776;2022-12-13T09:30:56;-1.30;1.00
19868;DHT22;10096;51.112;6.776;2022-12-13T09:33:23;-1.50;1.00
19868;DHT22;10096;51.112;6.776;2022-12-13T09:35:52;-1.30;1.00
19868;DHT22;10096;51.112;6.776;2022-12-13T09:38:19;-1.30;1.00
19868;DHT22;10096;51.112;6.776;2022-12-13T09:40:48;-1.50;1.00
19868;DHT22;10096;51.112;6.776;2022-12-13T09:43:23;-1.40;1.00
19868;DHT22;10096;51.112;6.776;2022-12-13T09:45:51;-1.20;1.00
19868;DHT22;10096;51.112;6.776;2022-12-13T09:48:20;-1.10;1.00
19868;DHT22;10096;51.112;6.776;2022-12-13T09:50:48;-1.00;1.00
19868;DHT22;10096;51.112;6.776;2022-12-13T09:53:18;-1.10;1.00
19868;DHT22;10096;51.112;6.776;2022-12-13T09:55:47;-0.90;1.00
19868;DHT22;10096;51.112;6.776;2022-12-13T09:58:17;-1.10;1.00
19868;DHT22;10096;51.112;6.776;2022-12-13T10:00:47;-0.90;1.00
19868;DHT22;10096;51.112;6.776;2022-12-13T10:03:15;-0.90;1.00
19868;DHT22;10096;51.112;6.776;2022-12-13T10:05:55;-0.90;1.00
19868;DHT22;10096;51.112;6.776;2022-12-13T10:08:29;-0.60;1.00
19868;DHT22;10096;51.112;6.776;2022-12-13T10:10:57;-0.60;1.00
19868;DHT22;10096;51.112;6.776;2022-12-13T10:13:29;-0.70;1.00
19868;DHT22;10096;51.112;6.776;2022-12-13T10:16:05;-0.70;1.00
19868;DHT22;10096;51.112;6.776;2022-12-13T10:18:34;-0.60;1.00
19868;DHT22;10096;51.112;6.776;2022-12-13T10:21:04;-0.40;1.00
19868;DHT22;10096;51.112;6.776;2022-12-13T10:23:37;-0.40;1.00
19868;DHT22;10096;51.112;6.776;2022-12-13T10:26:08;-0.40;1.00
19868;DHT22;10096;51.112;6.776;2022-12-13T10:28:35;-0.10;1.00
19868;DHT22;10096;51.112;6.776;2022-12-13T10:31:04;-0.20;1.00
19868;DHT22;10096;51.112;6.776;2022-12-13T10:33:35;-0.10;1.00
19868;DHT22;10096;51.112;6.776;2022-12-13T10:36:05;0.00;1.00
19868;DHT22;10096;51.112;6.776;2022-12-13T10:38:40;-0.10;1.00
19868;DHT22;10096;51.112;6.776;2022-12-13T10:41:28;-0.20;1.00
19868;DHT22;10096;51.112;6.776;2022-12-13T10:44:07;0.10;1.00
19868;DHT22;10096;51.112;6.776;2022-12-13T10:46:35;0.00;1.00
19868;DHT22;10096;51.112;6.776;2022-12-13T10:49:02;0.30;1.00
19868;DHT22;10096;51.112;6.776;2022-12-13T10:51:36;0.10;1.00
19868;DHT22;10096;51.112;6.776;2022-12-13T10:54:14;0.10;1.00
19868;DHT22;10096;51.112;6.776;2022-12-13T10:56:45;0.00;1.00
19868;DHT22;10096;51.112;6.776;2022-12-13T10:59:33;0.30;1.00
19868;DHT22;10096;51.112;6.776;2022-12-13T11:02:34;0.30;1.00
19868;DHT22;10096;51.112;6.776;2022-12-13T11:05:24;0.40;1.00
19868;DHT22;10096;51.112;6.776;2022-12-13T11:07:54;0.60;1.00
19868;DHT22;10096;51.112;6.776;2022-12-13T11:10:26;0.60;1.00
19868;DHT22;10096;51.112;6.776;2022-12-13T11:12:58;0.70;1.00
19868;DHT22;10096;51.112;6.776;2022-12-13T11:15:54;0.70;1.00
19868;DHT22;10096;51.112;6.776;2022-12-13T11:18:23;0.70;1.00
19868;DHT22;10096;51.112;6.776;2022-12-13T11:20:54;0.80;1.00
19868;DHT22;10096;51.112;6.776;2022-12-13T11:23:27;0.60;1.00
19868;DHT22;10096;51.112;6.776;2022-12-13T11:26:00;0.60;1.00
19868;DHT22;10096;51.112;6.776;2022-12-13T11:28:54;0.70;1.00
19868;DHT22;10096;51.112;6.776;2022-12-13T11:31:31;0.60;1.00
19868;DHT22;10096;51.112;6.776;2022-12-13T11:34:04;0.80;1.00
19868;DHT22;10096;51.112;6.776;2022-12-13T11:36:46;0.60;1.00
19868;DHT22;10096;51.112;6.776;2022-12-13T11:39:19;0.70;1.00
19868;DHT22;10096;51.112;6.776;2022-12-13T11:42:00;1.00;1.00
19868;DHT22;10096;51.112;6.776;2022-12-13T11:44:41;0.90;1.00
19868;DHT22;10096;51.112;6.776;2022-12-13T11:47:15;1.10;1.00
19868;DHT22;10096;51.112;6.776;2022-12-13T11:49:45;0.90;1.00
19868;DHT22;10096;51.112;6.776;2022-12-13T11:52:16;1.20;1.00
19868;DHT22;10096;51.112;6.776;2022-12-13T11:54:51;1.20;1.00
19868;DHT22;10096;51.112;6.776;2022-12-13T11:57:38;1.00;1.00
19868;DHT22;10096;51.112;6.776;2022-12-13T12:00:22;1.00;1.00
19868;DHT22;10096;51.112;6.776;2022-12-13T12:02:55;1.00;1.00
19868;DHT22;10096;51.112;6.776;2022-12-13T12:05:29;0.90;1.00
19868;DHT22;10096;51.112;6.776;2022-12-13T12:08:05;0.90;1.00
19868;DHT22;10096;51.112;6.776;2022-12-13T12:10:44;1.00;1.00
19868;DHT22;10096;51.112;6.776;2022-12-13T12:13:17;1.00;1.00
19868;DHT22;10096;51.112;6.776;2022-12-13T12:15:53;1.00;1.00
19868;DHT22;10096;51.112;6.776;2022-12-13T12:18:22;1.10;1.00
19868;DHT22;10096;51.112;6.776;2022-12-13T12:21:00;1.10;1.00
19868;DHT22;10096;51.112;6.776;2022-12-13T12:23:42;1.10;1.00
19868;DHT22;10096;51.112;6.776;2022-12-13T12:26:15;1.20;1.00
19868;DHT22;10096;51.112;6.776;2022-12-13T12:29:04;1.10;1.00
19868;DHT22;10096;51.112;6.776;2022-12-13T12:31:43;1.30;1.00
19868;DHT22;10096;51.112;6.776;2022-12-13T12:34:18;1.40;1.00
19868;DHT22;10096;51.112;6.776;2022-12-13T12:36:57;1.50;1.00
19868;DHT22;10096;51.112;6.776;2022-12-13T12:39:33;1.40;1.00
19868;DHT22;10096;51.112;6.776;2022-12-13T12:42:31;1.40;1.00
19868;DHT22;10096;51.112;6.776;2022-12-13T12:45:20;1.40;1.00
19868;DHT22;10096;51.112;6.776;2022-12-13T12:47:55;1.70;1.00
19868;DHT22;10096;51.112;6.776;2022-12-13T12:50:34;1.60;1.00
19868;DHT22;10096;51.112;6.776;2022-12-13T12:53:20;1.50;1.00
19868;DHT22;10096;51.112;6.776;2022-12-13T12:55:55;1.60;1.00
19868;DHT22;10096;51.112;6.776;2022-12-13T12:58:29;1.80;1.00
19868;DHT22;10096;51.112;6.776;2022-12-13T13:04:04;1.60;1.00
19868;DHT22;10096;51.112;6.776;2022-12-13T13:06:35;1.50;1.00
19868;DHT22;10096;51.112;6.776;2022-12-13T13:09:07;1.80;1.00
19868;DHT22;10096;51.112;6.776;2022-12-13T13:11:37;1.40;1.00
19868;DHT22;10096;51.112;6.776;2022-12-13T13:14:31;1.50;1.00
19868;DHT22;10096;51.112;6.776;2022-12-13T13:16:59;1.60;1.00
19868;DHT22;10096;51.112;6.776;2022-12-13T13:19:45;1.90;1.00
19868;DHT22;10096;51.112;6.776;2022-12-13T13:22:30;1.90;1.00
19868;DHT22;10096;51.112;6.776;2022-12-13T13:25:12;2.10;1.00
19868;DHT22;10096;51.112;6.776;2022-12-13T13:27:44;1.90;1.00
19868;DHT22;10096;51.112;6.776;2022-12-13T13:30:16;2.00;1.00
19868;DHT22;10096;51.112;6.776;2022-12-13T13:32:45;1.80;1.00
19868;DHT22;10096;51.112;6.776;2022-12-13T13:41:45;1.80;1.00
19868;DHT22;10096;51.112;6.776;2022-12-13T13:47:33;1.80;1.00
19868;DHT22;10096;51.112;6.776;2022-12-13T13:50:32;1.70;1.00
19868;DHT22;10096;51.112;6.776;2022-12-13T13:53:25;1.70;1.00
19868;DHT22;10096;51.112;6.776;2022-12-13T13:55:59;1.90;1.00
19868;DHT22;10096;51.112;6.776;2022-12-13T14:02:29;1.70;1.00
19868;DHT22;10096;51.112;6.776;2022-12-13T14:05:34;1.70;1.00
19868;DHT22;10096;51.112;6.776;2022-12-13T14:08:18;1.80;1.00
19868;DHT22;10096;51.112;6.776;2022-12-13T14:23:32;1.90;1.00
19868;DHT22;10096;51.112;6.776;2022-12-13T14:26:39;1.80;1.00
19868;DHT22;10096;51.112;6.776;2022-12-13T14:29:11;1.80;1.00
19868;DHT22;10096;51.112;6.776;2022-12-13T14:31:42;1.70;1.00
19868;DHT22;10096;51.112;6.776;2022-12-13T14:34:18;1.90;1.00
19868;DHT22;10096;51.112;6.776;2022-12-13T14:36:55;1.90;1.00
19868;DHT22;10096;51.112;6.776;2022-12-13T14:39:23;1.80;1.00
19868;DHT22;10096;51.112;6.776;2022-12-13T14:41:52;1.60;1.00
19868;DHT22;10096;51.112;6.776;2022-12-13T14:44:22;1.70;1.00
19868;DHT22;10096;51.112;6.776;2022-12-13T14:46:51;1.50;1.00
19868;DHT22;10096;51.112;6.776;2022-12-13T14:49:20;1.60;1.00
19868;DHT22;10096;51.112;6.776;2022-12-13T14:51:49;1.60;1.00
19868;DHT22;10096;51.112;6.776;2022-12-13T14:54:29;1.70;1.00
19868;DHT22;10096;51.112;6.776;2022-12-13T14:56:59;1.50;1.00
19868;DHT22;10096;51.112;6.776;2022-12-13T14:59:27;1.40;1.00
19868;DHT22;10096;51.112;6.776;2022-12-13T15:01:59;1.40;1.00
19868;DHT22;10096;51.112;6.776;2022-12-13T15:04:29;1.50;1.00
19868;DHT22;10096;51.112;6.776;2022-12-13T15:07:02;1.50;1.00
19868;DHT22;10096;51.112;6.776;2022-12-13T15:09:34;1.30;1.00
19868;DHT22;10096;51.112;6.776;2022-12-13T15:12:07;1.30;1.00
19868;DHT22;10096;51.112;6.776;2022-12-13T15:14:36;1.30;1.00
19868;DHT22;10096;51.112;6.776;2022-12-13T15:17:04;1.20;1.00
19868;DHT22;10096;51.112;6.776;2022-12-13T15:19:41;1.30;1.00
19868;DHT22;10096;51.112;6.776;2022-12-13T15:22:14;1.40;1.00
19868;DHT22;10096;51.112;6.776;2022-12-13T15:24:43;1.10;1.00
19868;DHT22;10096;51.112;6.776;2022-12-13T15:27:13;1.30;1.00
19868;DHT22;10096;51.112;6.776;2022-12-13T15:29:41;1.50;1.00
19868;DHT22;10096;51.112;6.776;2022-12-13T15:32:14;1.20;1.00
19868;DHT22;10096;51.112;6.776;2022-12-13T15:34:44;1.40;1.00
19868;DHT22;10096;51.112;6.776;2022-12-13T15:37:21;1.20;1.00
19868;DHT22;10096;51.112;6.776;2022-12-13T15:39:54;1.20;1.00
19868;DHT22;10096;51.112;6.776;2022-12-13T15:42:24;1.30;1.00
19868;DHT22;10096;51.112;6.776;2022-12-13T15:44:55;1.20;1.00
19868;DHT22;10096;51.112;6.776;2022-12-13T15:47:24;1.20;1.00
19868;DHT22;10096;51.112;6.776;2022-12-13T15:49:54;1.40;1.00
19868;DHT22;10096;51.112;6.776;2022-12-13T15:52:27;1.40;1.00
19868;DHT22;10096;51.112;6.776;2022-12-13T15:54:58;1.20;1.00
19868;DHT22;10096;51.112;6.776;2022-12-13T15:57:28;1.20;1.00
19868;DHT22;10096;51.112;6.776;2022-12-13T16:00:05;1.30;1.00
19868;DHT22;10096;51.112;6.776;2022-12-13T16:02:47;1.10;1.00
19868;DHT22;10096;51.112;6.776;2022-12-13T16:05:22;1.10;1.00
19868;DHT22;10096;51.112;6.776;2022-12-13T16:08:04;1.20;1.00
19868;DHT22;10096;51.112;6.776;2022-12-13T16:10:49;0.90;1.00
19868;DHT22;10096;51.112;6.776;2022-12-13T16:13:22;1.10;1.00
19868;DHT22;10096;51.112;6.776;2022-12-13T16:15:51;0.90;1.00
19868;DHT22;10096;51.112;6.776;2022-12-13T16:18:21;0.80;1.00
19868;DHT22;10096;51.112;6.776;2022-12-13T16:20:49;0.70;1.00
19868;DHT22;10096;51.112;6.776;2022-12-13T16:23:16;0.70;1.00
19868;DHT22;10096;51.112;6.776;2022-12-13T16:25:43;0.60;1.00
19868;DHT22;10096;51.112;6.776;2022-12-13T16:28:25;0.70;1.00
19868;DHT22;10096;51.112;6.776;2022-12-13T16:31:00;0.60;1.00
19868;DHT22;10096;51.112;6.776;2022-12-13T16:33:28;0.60;1.00
19868;DHT22;10096;51.112;6.776;2022-12-13T16:35:55;0.80;1.00
19868;DHT22;10096;51.112;6.776;2022-12-13T16:38:22;0.60;1.00
19868;DHT22;10096;51.112;6.776;2022-12-13T16:40:53;0.70;1.00
19868;DHT22;10096;51.112;6.776;2022-12-13T16:43:22;0.70;1.00